createdAt,value
2022-08-08T00:02:30.428Z,50.99
2022-08-08T00:05:12.854Z,51.17
2022-08-08T00:08:01.980Z,51.77
2022-08-08T00:10:49.806Z,51.95
2022-08-08T00:14:15.576Z,51.92
2022-08-08T00:17:23.503Z,52.20
2022-08-08T00:20:07.820Z,52.64
2022-08-08T00:22:47.700Z,53.04
2022-08-08T00:25:23.044Z,53.28
2022-08-08T00:27:54.711Z,53.64
2022-08-08T00:30:24.106Z,53.55
2022-08-08T00:33:02.777Z,54.43
2022-08-08T00:35:37.259Z,54.36
2022-08-08T00:38:52.175Z,53.99
2022-08-08T00:42:07.848Z,54.41
2022-08-08T00:44:59.689Z,54.13
2022-08-08T00:48:29.402Z,54.26
2022-08-08T00:51:51.018Z,53.40
2022-08-08T00:55:16.902Z,53.75
2022-08-08T00:58:32.664Z,53.60
2022-08-08T01:01:37.436Z,53.52
2022-08-08T01:05:42.531Z,53.32
2022-08-08T01:09:36.920Z,54.00
2022-08-08T01:12:29.854Z,53.73
2022-08-08T01:15:56.710Z,54.40
2022-08-08T01:18:59.175Z,54.13
2022-08-08T01:22:23.113Z,54.71
2022-08-08T01:25:42.989Z,55.85
2022-08-08T01:29:05.608Z,56.21
2022-08-08T01:32:35.039Z,56.37
2022-08-08T01:35:29.790Z,57.23
2022-08-08T01:38:27.821Z,56.75
2022-08-08T01:41:38.046Z,57.01
2022-08-08T01:44:43.540Z,57.24
2022-08-08T01:48:30.540Z,57.07
2022-08-08T01:51:31.735Z,57.58
2022-08-08T01:55:19.646Z,57.40
2022-08-08T01:59:07.866Z,57.83
2022-08-08T02:02:30.604Z,57.36
2022-08-08T02:05:55.874Z,57.62
2022-08-08T02:08:57.982Z,57.95
2022-08-08T02:11:53.088Z,58.48
2022-08-08T02:14:32.972Z,58.67
2022-08-08T02:17:20.616Z,58.72
2022-08-08T02:20:09.809Z,58.88
2022-08-08T02:23:31.594Z,58.57
2022-08-08T02:26:15.957Z,58.42
2022-08-08T02:28:53.574Z,58.15
2022-08-08T02:32:00.864Z,58.02
2022-08-08T02:35:11.988Z,57.99
2022-08-08T02:38:16.062Z,58.21
2022-08-08T02:41:17.871Z,58.14
2022-08-08T02:45:18.281Z,57.60
2022-08-08T02:48:25.938Z,57.56
2022-08-08T02:51:38.281Z,57.39
2022-08-08T02:55:02.296Z,57.46
2022-08-08T02:58:28.264Z,57.27
2022-08-08T03:01:26.702Z,58.04
2022-08-08T03:05:02.702Z,57.63
2022-08-08T03:08:38.239Z,57.09
2022-08-08T03:11:48.085Z,57.30
2022-08-08T03:15:58.741Z,57.35
2022-08-08T03:17:39.085Z,57.70
2022-08-08T03:20:08.259Z,57.71
2022-08-08T03:22:47.320Z,57.91
2022-08-08T03:25:19.291Z,57.96
2022-08-08T03:28:00.027Z,57.83
2022-08-08T03:30:32.132Z,58.13
2022-08-08T03:33:55.134Z,57.99
2022-08-08T03:36:19.478Z,57.95
2022-08-08T03:38:54.276Z,58.02
2022-08-08T03:42:27.103Z,57.72
2022-08-08T03:44:25.693Z,57.24
2022-08-08T03:46:54.133Z,57.73
2022-08-08T03:50:00.336Z,57.82
2022-08-08T03:52:14.908Z,57.71
2022-08-08T03:55:02.338Z,57.34
2022-08-08T03:58:35.042Z,57.24
2022-08-08T04:00:25.947Z,57.90
2022-08-08T04:03:11.402Z,57.89
2022-08-08T04:05:47.160Z,58.48
2022-08-08T04:08:33.227Z,58.71
2022-08-08T04:11:11.529Z,58.28
2022-08-08T04:14:03.152Z,58.69
2022-08-08T04:16:40.460Z,59.05
2022-08-08T04:19:23.988Z,58.79
2022-08-08T04:21:57.361Z,58.47
2022-08-08T04:24:29.550Z,58.79
2022-08-08T04:27:00.565Z,58.75
2022-08-08T04:29:36.632Z,58.08
2022-08-08T04:32:07.606Z,58.07
2022-08-08T04:34:49.329Z,57.74
2022-08-08T04:37:31.853Z,58.11
2022-08-08T04:40:04.991Z,57.53
2022-08-08T04:42:56.251Z,57.59
2022-08-08T04:45:26.944Z,57.13
2022-08-08T04:47:58.580Z,58.04
2022-08-08T04:50:34.192Z,57.89
2022-08-08T04:53:13.999Z,57.73
2022-08-08T04:55:56.079Z,57.77
2022-08-08T04:58:25.738Z,57.49
2022-08-08T05:00:53.417Z,57.58
2022-08-08T05:04:07.974Z,57.24
2022-08-08T05:06:12.732Z,56.87
2022-08-08T05:08:51.742Z,56.97
2022-08-08T05:11:24.538Z,56.66
2022-08-08T05:14:01.426Z,56.17
2022-08-08T05:16:51.930Z,56.05
2022-08-08T05:20:12.037Z,56.34
2022-08-08T05:22:10.212Z,56.06
2022-08-08T05:24:41.792Z,55.66
2022-08-08T05:27:16.483Z,55.88
2022-08-08T05:29:43.401Z,56.26
2022-08-08T05:32:12.841Z,56.27
2022-08-08T05:34:49.775Z,55.42
2022-08-08T05:37:39.097Z,55.64
2022-08-08T05:40:17.095Z,55.34
2022-08-08T05:42:51.707Z,55.38
2022-08-08T05:45:30.872Z,55.10
2022-08-08T05:48:08.965Z,54.65
2022-08-08T05:50:39.379Z,54.55
2022-08-08T05:53:23.038Z,54.59
2022-08-08T05:56:07.588Z,54.56
2022-08-08T05:58:56.677Z,54.57
2022-08-08T06:01:55.659Z,54.43
2022-08-08T06:04:27.419Z,54.31
2022-08-08T06:07:02.054Z,54.33
2022-08-08T06:09:59.383Z,54.11
2022-08-08T06:12:29.821Z,54.25
2022-08-08T06:15:03.268Z,54.33
2022-08-08T06:18:18.348Z,54.25
2022-08-08T06:20:25.629Z,53.95
2022-08-08T06:22:53.768Z,53.67
2022-08-08T06:26:34.554Z,53.54
2022-08-08T06:28:20.383Z,53.50
2022-08-08T06:31:01.789Z,53.62
2022-08-08T06:34:27.635Z,54.44
2022-08-08T06:36:53.944Z,53.89
2022-08-08T06:39:24.560Z,53.58
2022-08-08T06:41:59.615Z,53.33
2022-08-08T06:44:42.602Z,52.94
2022-08-08T06:47:10.679Z,53.36
2022-08-08T06:49:55.367Z,53.24
2022-08-08T06:52:27.720Z,53.29
2022-08-08T06:54:55.496Z,52.92
2022-08-08T06:57:25.045Z,53.33
2022-08-08T07:00:12.494Z,53.42
2022-08-08T07:02:46.531Z,53.29
2022-08-08T07:05:20.308Z,52.95
2022-08-08T07:08:01.508Z,52.68
2022-08-08T07:10:50.623Z,52.17
2022-08-08T07:13:25.042Z,52.00
2022-08-08T07:16:10.016Z,51.87
2022-08-08T07:19:16.487Z,51.90
2022-08-08T07:22:05.522Z,51.76
2022-08-08T07:24:59.846Z,51.74
2022-08-08T07:27:47.163Z,51.50
2022-08-08T07:30:25.754Z,51.59
2022-08-08T07:32:59.617Z,51.20
2022-08-08T07:35:30.913Z,50.91
2022-08-08T07:38:09.757Z,50.60
2022-08-08T07:40:47.247Z,49.90
2022-08-08T07:43:16.864Z,49.45
2022-08-08T07:46:18.350Z,49.62
2022-08-08T07:48:47.297Z,49.57
2022-08-08T07:51:23.047Z,49.59
2022-08-08T07:54:15.796Z,48.36
2022-08-08T07:57:36.097Z,48.51
2022-08-08T08:00:13.444Z,47.73
2022-08-08T08:03:20.647Z,46.96
2022-08-08T08:05:54.563Z,46.74
2022-08-08T08:09:06.975Z,45.03
2022-08-08T08:11:52.518Z,45.22
2022-08-08T08:14:55.725Z,44.47
2022-08-08T08:17:25.749Z,45.15
2022-08-08T08:20:04.862Z,43.79
2022-08-08T08:22:33.849Z,43.67
2022-08-08T08:25:08.095Z,43.63
2022-08-08T08:27:37.373Z,43.20
2022-08-08T08:30:07.213Z,41.62
2022-08-08T08:32:36.668Z,41.26
2022-08-08T08:35:15.318Z,40.43
2022-08-08T08:38:05.476Z,40.03
2022-08-08T08:40:31.934Z,40.54
2022-08-08T08:43:03.498Z,40.79
2022-08-08T08:45:31.715Z,41.12
2022-08-08T08:48:02.725Z,40.90
2022-08-08T08:50:37.067Z,40.55
2022-08-08T08:53:27.290Z,38.77
2022-08-08T08:56:08.434Z,38.99
2022-08-08T08:58:47.019Z,39.12
2022-08-08T09:01:26.827Z,39.78
2022-08-08T09:04:31.385Z,38.79
2022-08-08T09:06:58.588Z,38.73
2022-08-08T09:09:39.792Z,39.39
2022-08-08T09:12:25.931Z,39.28
2022-08-08T09:14:56.923Z,38.78
2022-08-08T09:17:40.989Z,38.75
2022-08-08T09:21:57.373Z,38.57
2022-08-08T09:23:01.269Z,39.01
2022-08-08T09:25:36.050Z,38.79
2022-08-08T09:28:35.381Z,37.81
2022-08-08T09:31:56.198Z,37.71
2022-08-08T09:34:32.626Z,38.33
2022-08-08T09:37:29.161Z,37.67
2022-08-08T09:40:10.849Z,37.67
2022-08-08T09:42:51.697Z,37.41
2022-08-08T09:46:03.061Z,37.25
2022-08-08T09:48:38.837Z,36.72
2022-08-08T09:51:09.705Z,36.57
2022-08-08T09:54:00.076Z,35.64
2022-08-08T09:56:40.971Z,36.02
2022-08-08T09:59:42.844Z,36.21
2022-08-08T10:02:12.519Z,36.02
2022-08-08T10:04:47.539Z,35.51
2022-08-08T10:07:16.599Z,34.62
2022-08-08T10:09:59.687Z,34.33
2022-08-08T10:12:38.770Z,34.68
2022-08-08T10:15:25.517Z,33.74
2022-08-08T10:18:05.899Z,33.82
2022-08-08T10:20:57.521Z,33.99
2022-08-08T10:23:58.485Z,33.67
2022-08-08T10:26:59.116Z,33.56
2022-08-08T10:29:59.551Z,33.53
2022-08-08T10:32:32.475Z,33.40
2022-08-08T10:35:10.615Z,33.27
2022-08-08T10:37:58.235Z,33.77
2022-08-08T10:40:32.259Z,33.83
2022-08-08T10:43:03.397Z,33.20
2022-08-08T10:45:56.109Z,32.81
2022-08-08T10:48:58.536Z,32.89
2022-08-08T10:51:31.403Z,33.65
2022-08-08T10:54:08.140Z,32.70
2022-08-08T10:56:43.321Z,33.15
2022-08-08T10:59:14.015Z,32.34
2022-08-08T11:01:49.364Z,32.10
2022-08-08T11:04:30.168Z,32.27
2022-08-08T11:07:06.616Z,33.01
2022-08-08T11:09:33.952Z,32.53
2022-08-08T11:12:13.277Z,32.52
2022-08-08T11:14:58.217Z,32.71
2022-08-08T11:17:58.836Z,33.55
2022-08-08T11:20:28.006Z,33.28
2022-08-08T11:23:05.354Z,32.67
2022-08-08T11:25:52.781Z,33.01
2022-08-08T11:28:29.115Z,33.18
2022-08-08T11:31:00.685Z,32.57
2022-08-08T11:33:51.234Z,33.02
2022-08-08T11:36:22.100Z,33.12
2022-08-08T11:38:55.182Z,33.04
2022-08-08T11:41:25.031Z,32.30
2022-08-08T11:43:57.857Z,32.21
2022-08-08T11:46:28.117Z,31.78
2022-08-08T11:48:59.061Z,31.09
2022-08-08T11:51:30.238Z,31.42
2022-08-08T11:54:31.271Z,30.96
2022-08-08T11:57:14.169Z,30.52
2022-08-08T12:00:02.622Z,31.53
2022-08-08T12:02:55.600Z,31.22
2022-08-08T12:05:36.043Z,31.47
2022-08-08T12:08:04.180Z,31.51
2022-08-08T12:10:32.065Z,31.25
2022-08-08T12:13:09.455Z,31.29
2022-08-08T12:15:46.951Z,30.85
2022-08-08T12:18:20.773Z,30.89
2022-08-08T12:20:53.411Z,31.55
2022-08-08T12:23:42.910Z,31.53
2022-08-08T12:26:28.397Z,31.27
2022-08-08T12:29:41.308Z,31.25
2022-08-08T12:32:20.292Z,30.98
2022-08-08T12:35:13.463Z,30.68
2022-08-08T12:38:01.309Z,31.26
2022-08-08T12:40:56.316Z,30.15
2022-08-08T12:43:47.977Z,30.74
2022-08-08T12:46:25.178Z,29.97
2022-08-08T12:49:20.734Z,29.88
2022-08-08T12:51:50.137Z,29.73
2022-08-08T12:54:33.438Z,30.07
2022-08-08T12:57:24.471Z,29.06
2022-08-08T13:00:05.263Z,29.49
2022-08-08T13:02:51.727Z,28.93
2022-08-08T13:05:26.766Z,29.41
2022-08-08T13:08:18.867Z,29.12
2022-08-08T13:10:56.858Z,28.73
2022-08-08T13:13:37.700Z,28.51
2022-08-08T13:16:26.029Z,28.90
2022-08-08T13:19:00.552Z,29.60
2022-08-08T13:21:48.674Z,29.75
2022-08-08T13:24:18.331Z,29.76
2022-08-08T13:27:04.404Z,29.42
2022-08-08T13:29:40.790Z,29.18
2022-08-08T13:32:10.714Z,29.28
2022-08-08T13:34:40.126Z,29.79
2022-08-08T13:37:19.748Z,30.50
2022-08-08T13:40:02.431Z,30.02
2022-08-08T13:42:30.130Z,29.37
2022-08-08T13:44:59.380Z,30.17
2022-08-08T13:47:27.422Z,30.01
2022-08-08T13:50:36.585Z,29.79
2022-08-08T13:52:51.101Z,29.65
2022-08-08T13:55:28.924Z,29.60
2022-08-08T13:58:07.948Z,29.71
2022-08-08T14:00:45.519Z,29.74
2022-08-08T14:03:47.233Z,29.34
2022-08-08T14:06:33.527Z,29.84
2022-08-08T14:08:57.853Z,30.02
2022-08-08T14:11:29.656Z,29.62
2022-08-08T14:14:00.367Z,29.34
2022-08-08T14:16:28.124Z,29.63
2022-08-08T14:18:58.203Z,30.09
2022-08-08T14:21:51.888Z,29.90
2022-08-08T14:24:32.062Z,29.98
2022-08-08T14:26:58.972Z,30.03
2022-08-08T14:29:30.611Z,30.56
2022-08-08T14:32:08.861Z,29.94
2022-08-08T14:34:42.066Z,30.14
2022-08-08T14:37:12.984Z,30.04
2022-08-08T14:40:05.748Z,30.40
2022-08-08T14:42:47.423Z,30.47
2022-08-08T14:45:33.376Z,30.66
2022-08-08T14:48:17.803Z,30.66
2022-08-08T14:51:07.615Z,31.65
2022-08-08T14:53:55.502Z,32.11
2022-08-08T14:56:25.727Z,32.15
2022-08-08T14:58:56.361Z,32.68
2022-08-08T15:01:37.233Z,32.57
2022-08-08T15:04:09.577Z,32.84
2022-08-08T15:06:37.454Z,33.39
2022-08-08T15:09:07.038Z,33.27
2022-08-08T15:11:43.326Z,34.13
2022-08-08T15:14:14.954Z,34.72
2022-08-08T15:16:44.186Z,35.46
2022-08-08T15:19:11.699Z,36.57
2022-08-08T15:21:44.612Z,35.47
2022-08-08T15:24:13.815Z,35.05
2022-08-08T15:26:43.993Z,34.61
2022-08-08T15:29:19.508Z,35.24
2022-08-08T15:32:02.759Z,35.16
2022-08-08T15:34:40.031Z,35.47
2022-08-08T15:37:07.755Z,35.20
2022-08-08T15:39:38.006Z,35.12
2022-08-08T15:42:13.225Z,35.41
2022-08-08T15:44:45.636Z,35.71
2022-08-08T15:47:15.962Z,35.88
2022-08-08T15:49:48.379Z,36.10
2022-08-08T15:52:17.714Z,36.07
2022-08-08T15:54:47.767Z,36.14
2022-08-08T15:57:15.629Z,36.58
2022-08-08T16:00:14.168Z,36.49
2022-08-08T16:02:43.967Z,36.11
2022-08-08T16:05:21.405Z,36.08
2022-08-08T16:07:51.224Z,36.34
2022-08-08T16:13:15.436Z,36.19
2022-08-08T16:13:30.733Z,35.92
2022-08-08T16:15:59.265Z,36.62
2022-08-08T16:18:32.343Z,36.03
2022-08-08T16:21:01.009Z,36.25
2022-08-08T16:23:32.478Z,36.07
2022-08-08T16:26:05.087Z,36.70
2022-08-08T16:28:44.374Z,36.47
2022-08-08T16:31:12.916Z,36.58
2022-08-08T16:33:40.653Z,35.69
2022-08-08T16:36:15.816Z,35.98
2022-08-08T16:38:47.553Z,36.54
2022-08-08T16:41:22.530Z,36.77
2022-08-08T16:43:51.861Z,36.49
2022-08-08T16:46:39.304Z,37.11
2022-08-08T16:49:09.410Z,36.44
2022-08-08T16:55:05.140Z,36.20
2022-08-08T16:55:14.001Z,36.24
2022-08-08T16:57:23.610Z,36.06
2022-08-08T17:00:04.344Z,35.82
2022-08-08T17:02:39.659Z,35.93
2022-08-08T17:05:08.662Z,35.22
2022-08-08T17:07:37.540Z,35.32
2022-08-08T17:10:11.538Z,34.99
2022-08-08T17:12:52.752Z,35.12
2022-08-08T17:15:22.971Z,34.31
2022-08-08T17:18:02.801Z,34.23
2022-08-08T17:20:39.682Z,34.21
2022-08-08T17:23:18.501Z,34.34
2022-08-08T17:25:55.420Z,33.80
2022-08-08T17:28:33.964Z,34.11
2022-08-08T17:31:43.123Z,34.92
2022-08-08T17:34:49.586Z,35.79
2022-08-08T17:37:00.766Z,35.90
2022-08-08T17:40:04.374Z,36.21
2022-08-08T17:42:18.390Z,37.09
2022-08-08T17:44:49.092Z,37.12
2022-08-08T17:47:27.425Z,37.49
2022-08-08T17:50:01.157Z,37.57
2022-08-08T17:52:34.048Z,38.07
2022-08-08T17:55:05.447Z,38.04
2022-08-08T17:57:36.439Z,38.27
2022-08-08T18:00:13.227Z,38.06
2022-08-08T18:02:58.144Z,39.01
2022-08-08T18:05:49.516Z,39.21
2022-08-08T18:08:25.114Z,39.38
2022-08-08T18:11:16.018Z,39.35
2022-08-08T18:13:47.024Z,39.32
2022-08-08T18:16:17.295Z,39.63
2022-08-08T18:18:56.223Z,39.51
2022-08-08T18:22:00.262Z,40.14
2022-08-08T18:24:19.365Z,40.33
2022-08-08T18:26:54.985Z,40.15
2022-08-08T18:29:35.231Z,40.43
2022-08-08T18:32:05.651Z,40.29
2022-08-08T18:34:35.176Z,40.96
2022-08-08T18:37:08.017Z,41.18
2022-08-08T18:39:38.487Z,41.23
2022-08-08T18:42:13.715Z,40.72
2022-08-08T18:44:42.259Z,41.16
2022-08-08T18:47:22.360Z,41.32
2022-08-08T18:49:58.764Z,42.39
2022-08-08T18:52:27.674Z,42.20
2022-08-08T18:55:00.167Z,42.09
2022-08-08T18:57:41.727Z,42.37
2022-08-08T19:00:20.372Z,42.06
2022-08-08T19:02:56.389Z,42.06
2022-08-08T19:05:34.428Z,42.40
2022-08-08T19:08:24.865Z,43.24
2022-08-08T19:11:01.618Z,43.14
2022-08-08T19:13:52.433Z,43.15
2022-08-08T19:16:19.794Z,43.81
2022-08-08T19:18:54.545Z,43.75
2022-08-08T19:21:30.889Z,43.90
2022-08-08T19:24:00.453Z,44.07
2022-08-08T19:26:30.511Z,44.04
2022-08-08T19:28:59.470Z,44.02
2022-08-08T19:31:31.517Z,44.52
2022-08-08T19:34:29.884Z,44.48
2022-08-08T19:36:53.379Z,44.23
2022-08-08T19:39:22.893Z,44.65
2022-08-08T19:41:50.515Z,44.03
2022-08-08T19:44:26.528Z,44.12
2022-08-08T19:47:05.141Z,44.77
2022-08-08T19:49:37.771Z,44.72
2022-08-08T19:52:06.947Z,44.34
2022-08-08T19:54:34.151Z,44.60
2022-08-08T19:57:04.151Z,44.69
2022-08-08T19:59:35.129Z,45.01
2022-08-08T20:02:04.730Z,45.16
2022-08-08T20:04:33.593Z,44.80
2022-08-08T20:07:05.060Z,44.80
2022-08-08T20:09:45.162Z,45.03
2022-08-08T20:12:32.633Z,45.43
2022-08-08T20:15:14.418Z,45.24
2022-08-08T20:17:46.825Z,45.17
2022-08-08T20:20:19.051Z,45.48
2022-08-08T20:22:52.673Z,45.65
2022-08-08T20:25:21.552Z,45.38
2022-08-08T20:27:49.590Z,45.35
2022-08-08T20:30:53.145Z,45.34
2022-08-08T20:33:20.117Z,45.70
2022-08-08T20:35:58.982Z,45.97
2022-08-08T20:38:32.553Z,45.53
2022-08-08T20:41:05.911Z,45.96
2022-08-08T20:43:49.853Z,45.86
2022-08-08T20:46:25.397Z,46.15
2022-08-08T20:48:55.529Z,46.28
2022-08-08T20:51:27.060Z,45.99
2022-08-08T20:54:04.212Z,46.15
2022-08-08T20:57:04.691Z,45.95
2022-08-08T20:59:29.044Z,46.14
2022-08-08T21:02:06.214Z,46.40
2022-08-08T21:04:35.551Z,46.63
2022-08-08T21:07:13.175Z,46.38
2022-08-08T21:10:01.638Z,46.77
2022-08-08T21:12:34.935Z,46.79
2022-08-08T21:15:09.622Z,46.29
2022-08-08T21:17:37.154Z,46.28
2022-08-08T21:20:05.486Z,46.47
2022-08-08T21:22:32.440Z,46.62
2022-08-08T21:24:59.359Z,46.75
2022-08-08T21:28:06.580Z,46.81
2022-08-08T21:30:18.198Z,47.07
2022-08-08T21:32:51.651Z,47.57
2022-08-08T21:36:13.818Z,47.76
2022-08-08T21:38:16.078Z,47.90
2022-08-08T21:40:55.888Z,47.99
2022-08-08T21:43:33.529Z,48.07
2022-08-08T21:48:07.952Z,48.20
2022-08-08T21:48:51.004Z,48.59
2022-08-08T21:52:09.846Z,48.06
2022-08-08T21:54:27.270Z,48.17
2022-08-08T21:56:59.940Z,48.10
2022-08-08T21:59:43.780Z,48.01
2022-08-08T22:02:16.099Z,48.41
2022-08-08T22:04:46.352Z,48.66
2022-08-08T22:07:13.363Z,49.10
2022-08-08T22:09:43.573Z,49.28
2022-08-08T22:12:14.986Z,49.14
2022-08-08T22:14:47.273Z,49.57
2022-08-08T22:17:17.162Z,49.92
2022-08-08T22:20:10.757Z,50.22
2022-08-08T22:22:37.453Z,50.07
2022-08-08T22:25:12.347Z,49.82
2022-08-08T22:28:04.167Z,49.89
2022-08-08T22:30:41.538Z,49.69
2022-08-08T22:33:22.220Z,49.68
2022-08-08T22:36:05.178Z,49.44
2022-08-08T22:38:48.892Z,49.61
2022-08-08T22:41:21.503Z,49.44
2022-08-08T22:44:02.690Z,49.52
2022-08-08T22:46:38.978Z,49.53
2022-08-08T22:49:09.175Z,49.89
2022-08-08T22:51:42.729Z,50.14
2022-08-08T22:54:31.404Z,50.47
2022-08-08T22:57:02.192Z,50.60
2022-08-08T22:59:52.770Z,50.65
2022-08-08T23:02:25.748Z,50.77
2022-08-08T23:05:01.979Z,51.27
2022-08-08T23:07:51.043Z,51.08
2022-08-08T23:10:19.825Z,51.28
2022-08-08T23:12:51.861Z,51.90
2022-08-08T23:16:38.460Z,51.70
2022-08-08T23:18:11.843Z,51.99
2022-08-08T23:20:41.122Z,51.89
2022-08-08T23:23:11.008Z,51.94
2022-08-08T23:25:47.750Z,51.76
2022-08-08T23:28:16.113Z,52.10
2022-08-08T23:30:45.784Z,51.69
2022-08-08T23:33:18.890Z,51.63
2022-08-08T23:36:07.352Z,51.33
2022-08-08T23:38:33.547Z,51.33
2022-08-08T23:41:00.479Z,51.26
2022-08-08T23:43:31.638Z,51.39
2022-08-08T23:49:04.030Z,51.37
2022-08-08T23:49:15.310Z,51.38
2022-08-08T23:52:04.610Z,52.10
2022-08-08T23:54:42.831Z,53.14
2022-08-08T23:57:26.759Z,53.61
